Laurel Lake, New Jersey
Current Conditions -  °F | °C
As of 4:54 PM on Tuesday 21 Oct 2014 (Local Time) from KMIV Reporting Station
Clear Clear  
Wind Chill: 69°   Ceiling: Unl
Heat Index: 69°   Visibility: 10mi
Dew Point: 46°   Wind: 6mph
Humidity: 44%   Direction: 290°WNW
Pressure: 29.8"   Gusts: NA
Location:  39.3323°N, 74.9928°W
Report Text: KMIV 212054Z AUTO 29005KT 10SM CLR 21/08 A2980 RMK AO2 SLP089 T02060078 55005
Loading
Personal Weather Stations






























Interactive Weather Map
Tropical Storm Tracking
New forecast layout! Learn more

10-Day Weather Forecast

Advertisements
Track Severe Weather on mobile